Time;durP1;ratioP1;P1;durP2;ratioP2;P2;SDS_P1;SDS_P2;PMS_P1;PMS_P2;Temp;Humidity;BMP_temperature;BMP_pressure;BME280_temperature;BME280_humidity;BME280_pressure;Samples;Min_cycle;Max_cycle;Signal;HPM_P1;HPM_P2
2021/03/02 00:00:40;;;;;;;34.80;20.17;;;4.90;99.90;;;;;;5073871;28;20192;-49
2021/03/02 00:03:07;;;;;;;30.85;17.35;;;5.10;99.90;;;;;;5055781;28;20294;-49
2021/03/02 00:05:33;;;;;;;30.80;17.33;;;4.90;99.90;;;;;;5073590;28;20195;-50
2021/03/02 00:07:59;;;;;;;31.15;18.80;;;4.90;99.90;;;;;;5073934;28;20215;-49
2021/03/02 00:10:26;;;;;;;25.80;16.83;;;4.80;99.90;;;;;;5073962;28;20254;-49
2021/03/02 00:12:54;;;;;;;27.17;17.60;;;5.10;99.90;;;;;;5073839;28;20282;-49
2021/03/02 00:15:20;;;;;;;24.98;16.15;;;4.90;99.90;;;;;;5073569;28;20234;-50
2021/03/02 00:17:48;;;;;;;26.88;16.95;;;4.80;99.90;;;;;;5055629;28;20200;-51
2021/03/02 00:20:16;;;;;;;26.02;16.90;;;4.90;99.90;;;;;;5073513;28;20296;-50
2021/03/02 00:22:59;;;;;;;27.80;17.58;;;5.10;99.90;;;;;;5072709;28;20231;-50
2021/03/02 00:25:27;;;;;;;30.33;17.33;;;4.90;99.90;;;;;;5073766;28;20206;-50
2021/03/02 00:27:55;;;;;;;26.60;16.58;;;4.90;99.90;;;;;;5073602;28;20314;-50
2021/03/02 00:30:23;;;;;;;31.20;17.95;;;4.80;99.90;;;;;;5073499;28;20211;-50
2021/03/02 00:32:50;;;;;;;27.80;16.13;;;4.90;99.90;;;;;;5055041;28;20207;-50
2021/03/02 00:35:17;;;;;;;26.77;15.50;;;5.00;99.90;;;;;;5073434;28;20582;-50
2021/03/02 00:37:47;;;;;;;25.23;15.38;;;4.50;99.90;;;;;;5073278;28;20195;-51
2021/03/02 00:40:14;;;;;;;26.50;16.30;;;4.70;99.90;;;;;;5072921;28;20230;-50
2021/03/02 00:42:40;;;;;;;21.85;15.60;;;4.80;99.90;;;;;;5072598;28;20238;-50
2021/03/02 00:45:09;;;;;;;28.58;15.77;;;4.70;99.90;;;;;;5072985;28;20199;-50
2021/03/02 00:47:35;;;;;;;21.83;15.20;;;4.90;99.90;;;;;;5073034;28;20227;-50
2021/03/02 00:50:02;;;;;;;28.58;17.63;;;4.90;99.90;;;;;;5072967;28;20317;-50
2021/03/02 00:52:29;;;;;;;25.23;15.82;;;4.50;99.90;;;;;;5072734;28;20204;-50
2021/03/02 00:54:55;;;;;;;26.20;15.25;;;4.90;99.90;;;;;;5055269;28;20677;-51
2021/03/02 00:57:21;;;;;;;25.67;15.68;;;4.80;99.90;;;;;;5055028;28;20230;-51
2021/03/02 00:59:48;;;;;;;27.02;16.10;;;4.80;99.90;;;;;;5054812;28;20230;-48
2021/03/02 01:02:15;;;;;;;27.92;17.48;;;4.40;99.90;;;;;;5054877;28;20286;-49
2021/03/02 01:04:43;;;;;;;23.58;15.43;;;4.70;99.90;;;;;;5055342;28;20203;-49
2021/03/02 01:07:09;;;;;;;26.80;17.20;;;4.70;99.90;;;;;;5072947;28;20541;-49
2021/03/02 01:09:35;;;;;;;27.23;16.30;;;4.80;99.90;;;;;;5072929;28;20687;-49
2021/03/02 01:12:03;;;;;;;24.92;15.52;;;4.90;99.90;;;;;;5073180;28;20253;-48
2021/03/02 01:14:36;;;;;;;25.30;14.90;;;4.50;99.90;;;;;;5054951;28;20214;-49
2021/03/02 01:17:02;;;;;;;29.40;16.83;;;4.50;99.90;;;;;;5054971;28;20203;-49
2021/03/02 01:19:30;;;;;;;24.35;15.02;;;4.50;99.90;;;;;;5073301;28;20640;-50
2021/03/02 01:21:56;;;;;;;22.42;15.70;;;4.00;99.90;;;;;;5072364;28;20199;-49
2021/03/02 01:24:22;;;;;;;28.38;17.15;;;4.50;99.90;;;;;;5071998;28;20274;-49
2021/03/02 01:26:48;;;;;;;26.50;17.05;;;4.60;99.90;;;;;;5054357;28;20196;-49
2021/03/02 01:29:14;;;;;;;25.40;16.48;;;4.40;99.90;;;;;;5072528;28;20695;-49
2021/03/02 01:31:41;;;;;;;29.08;17.10;;;4.70;99.90;;;;;;5072190;28;20191;-49
2021/03/02 01:34:07;;;;;;;29.83;17.15;;;4.60;99.90;;;;;;5070860;28;20243;-49
2021/03/02 01:36:34;;;;;;;26.73;17.38;;;4.70;99.90;;;;;;5072100;28;20203;-49
2021/03/02 01:39:01;;;;;;;24.13;15.55;;;4.40;99.90;;;;;;5072004;28;20222;-49
2021/03/02 01:41:28;;;;;;;23.73;14.90;;;4.40;99.90;;;;;;5072125;28;20690;-50
2021/03/02 01:43:54;;;;;;;28.55;17.23;;;4.60;99.90;;;;;;5071836;28;20407;-49
2021/03/02 01:46:20;;;;;;;27.88;15.23;;;4.60;99.90;;;;;;5054088;28;20664;-50
2021/03/02 01:48:47;;;;;;;28.15;15.57;;;4.60;99.90;;;;;;5071898;28;20734;-49
2021/03/02 01:51:13;;;;;;;28.80;17.00;;;4.40;99.90;;;;;;5071864;28;20195;-50
2021/03/02 01:53:40;;;;;;;24.95;16.50;;;4.50;99.90;;;;;;5071633;28;20218;-50
2021/03/02 01:56:07;;;;;;;25.83;16.75;;;4.20;99.90;;;;;;5071990;28;20262;-50
2021/03/02 01:58:33;;;;;;;27.90;18.95;;;4.40;99.90;;;;;;5071805;28;20290;-50
2021/03/02 02:01:01;;;;;;;26.08;16.45;;;4.30;99.90;;;;;;5072292;28;20226;-50
2021/03/02 02:03:35;;;;;;;27.77;16.73;;;4.30;99.90;;;;;;5071754;28;20675;-50
2021/03/02 02:06:07;;;;;;;26.17;16.42;;;4.20;99.90;;;;;;5072129;28;20222;-49
2021/03/02 02:08:44;;;;;;;24.52;17.70;;;4.20;99.90;;;;;;5071835;28;20247;-50
2021/03/02 02:11:23;;;;;;;27.02;17.45;;;4.30;99.90;;;;;;5071855;28;20226;-49
2021/03/02 02:13:57;;;;;;;27.48;16.60;;;4.30;99.90;;;;;;5071781;28;20199;-49
2021/03/02 02:16:25;;;;;;;27.58;17.90;;;4.20;99.90;;;;;;5072287;28;20219;-48
2021/03/02 02:18:52;;;;;;;34.22;16.85;;;4.20;99.90;;;;;;5072255;28;20211;-49
2021/03/02 02:21:26;;;;;;;25.52;17.70;;;4.20;99.90;;;;;;5072291;28;20192;-49
2021/03/02 02:24:08;;;;;;;30.60;17.27;;;4.20;99.90;;;;;;5072715;28;20191;-49
2021/03/02 02:26:44;;;;;;;24.80;16.30;;;4.20;99.90;;;;;;5072120;28;20195;-49
2021/03/02 02:29:13;;;;;;;27.35;17.35;;;4.00;99.90;;;;;;5072095;28;20227;-48
2021/03/02 02:31:41;;;;;;;29.27;17.08;;;4.20;99.90;;;;;;5072826;28;20195;-48
2021/03/02 02:34:11;;;;;;;33.08;17.67;;;4.00;99.90;;;;;;5071700;28;20245;-49
2021/03/02 02:36:39;;;;;;;26.73;16.95;;;4.20;99.90;;;;;;5071750;28;20245;-49
2021/03/02 02:39:07;;;;;;;30.05;16.27;;;4.00;99.90;;;;;;5071442;28;20215;-49
2021/03/02 02:41:34;;;;;;;27.13;17.30;;;4.10;99.90;;;;;;5071496;28;20201;-49
2021/03/02 02:44:01;;;;;;;26.10;16.50;;;4.20;99.90;;;;;;5071054;28;20270;-49
2021/03/02 02:46:28;;;;;;;26.33;18.30;;;4.20;99.90;;;;;;5074878;28;20188;-49
2021/03/02 02:48:58;;;;;;;27.77;16.55;;;3.90;99.90;;;;;;5075339;28;20233;-49
2021/03/02 02:51:25;;;;;;;25.63;17.02;;;3.90;99.90;;;;;;5075163;28;20686;-48
2021/03/02 02:53:52;;;;;;;35.70;18.65;;;4.00;99.90;;;;;;5074812;28;20232;-49
2021/03/02 02:56:20;;;;;;;26.65;17.02;;;4.00;99.90;;;;;;5075179;28;20191;-49
2021/03/02 02:58:59;;;;;;;29.15;16.98;;;4.00;99.90;;;;;;5075040;28;20596;-49
2021/03/02 03:01:29;;;;;;;26.77;17.58;;;3.80;99.90;;;;;;5075364;28;20610;-50
2021/03/02 03:03:58;;;;;;;28.67;15.85;;;4.20;99.90;;;;;;5074680;28;20563;-50
2021/03/02 03:06:28;;;;;;;26.35;16.75;;;4.00;99.90;;;;;;5075140;28;20273;-49
2021/03/02 03:08:56;;;;;;;26.00;16.48;;;3.60;99.90;;;;;;5074815;28;20218;-50
2021/03/02 03:11:25;;;;;;;26.45;16.88;;;3.80;99.90;;;;;;5075073;28;20219;-50
2021/03/02 03:13:53;;;;;;;24.02;15.43;;;3.60;99.90;;;;;;5074678;28;20743;-50
2021/03/02 03:16:23;;;;;;;32.00;17.55;;;3.90;99.90;;;;;;5074811;28;20206;-49
2021/03/02 03:18:52;;;;;;;29.70;17.20;;;4.00;99.90;;;;;;5074856;28;20218;-50
2021/03/02 03:21:19;;;;;;;24.92;15.10;;;3.90;99.90;;;;;;5074908;28;20219;-49
2021/03/02 03:23:48;;;;;;;30.98;16.70;;;3.80;99.90;;;;;;5056525;28;20203;-49
2021/03/02 03:26:16;;;;;;;32.88;17.15;;;3.90;99.90;;;;;;5074961;28;20230;-50
2021/03/02 03:28:45;;;;;;;27.15;16.45;;;3.90;99.90;;;;;;5075342;28;20584;-50
2021/03/02 03:31:12;;;;;;;25.20;17.27;;;3.60;99.90;;;;;;5074011;28;20191;-49
2021/03/02 03:33:41;;;;;;;29.50;16.45;;;3.60;99.90;;;;;;5074033;28;20626;-49
2021/03/02 03:36:08;;;;;;;31.40;18.50;;;3.80;99.90;;;;;;5074755;28;20230;-49
2021/03/02 03:38:35;;;;;;;26.00;16.15;;;3.60;99.90;;;;;;5074760;28;20226;-50
2021/03/02 03:41:01;;;;;;;30.00;18.55;;;3.60;99.90;;;;;;5074652;28;20191;-50
2021/03/02 03:43:28;;;;;;;27.88;17.60;;;3.70;99.90;;;;;;5074021;28;20199;-50
2021/03/02 03:45:54;;;;;;;33.85;18.65;;;3.80;99.90;;;;;;5056565;28;20233;-50
2021/03/02 03:48:20;;;;;;;29.48;17.52;;;3.50;99.90;;;;;;5075630;28;20707;-50
2021/03/02 03:50:46;;;;;;;25.92;16.67;;;3.60;99.90;;;;;;5076566;28;20214;-50
2021/03/02 03:53:16;;;;;;;32.42;17.65;;;3.50;99.90;;;;;;5059607;28;20612;-49
2021/03/02 03:55:44;;;;;;;26.50;16.02;;;3.60;99.90;;;;;;5074083;28;20657;-50
2021/03/02 03:58:16;;;;;;;28.48;17.30;;;3.70;99.90;;;;;;5073076;28;20210;-50
2021/03/02 04:00:43;;;;;;;25.10;17.30;;;3.70;99.90;;;;;;5074094;28;20192;-49
2021/03/02 04:03:10;;;;;;;27.33;16.40;;;3.50;99.90;;;;;;5073634;28;20271;-50
2021/03/02 04:05:38;;;;;;;30.90;16.65;;;3.80;99.90;;;;;;5073877;28;20280;-50
2021/03/02 04:08:05;;;;;;;27.05;16.60;;;3.70;99.90;;;;;;5073831;28;20215;-49
2021/03/02 04:10:33;;;;;;;27.60;17.20;;;3.40;99.90;;;;;;5073788;28;20313;-49
2021/03/02 04:12:59;;;;;;;30.75;17.25;;;3.70;99.90;;;;;;5073591;28;20191;-49
2021/03/02 04:15:26;;;;;;;26.75;15.68;;;3.60;99.90;;;;;;5073687;28;20198;-49
2021/03/02 04:17:54;;;;;;;32.00;17.60;;;3.50;99.90;;;;;;5073445;28;20193;-49
2021/03/02 04:20:21;;;;;;;28.80;17.35;;;3.20;99.90;;;;;;5073410;28;20235;-49
2021/03/02 04:22:47;;;;;;;27.23;16.88;;;3.60;99.90;;;;;;5073110;28;20614;-49
2021/03/02 04:25:14;;;;;;;30.92;17.13;;;3.50;99.90;;;;;;5073241;28;20358;-49
2021/03/02 04:27:41;;;;;;;29.80;18.42;;;3.30;99.90;;;;;;5073345;28;20272;-50
2021/03/02 04:30:09;;;;;;;31.38;18.38;;;2.90;99.90;;;;;;5073136;28;20640;-49
2021/03/02 04:32:35;;;;;;;31.48;18.67;;;3.50;99.90;;;;;;5073041;28;20206;-48
2021/03/02 04:35:02;;;;;;;34.00;18.52;;;3.50;99.90;;;;;;5073207;28;20223;-49
2021/03/02 04:37:28;;;;;;;28.90;17.13;;;3.20;99.90;;;;;;5073048;28;20652;-49
2021/03/02 04:39:54;;;;;;;33.63;17.92;;;3.10;99.90;;;;;;5073478;28;20264;-47
2021/03/02 04:42:20;;;;;;;30.33;18.48;;;3.30;99.90;;;;;;5073215;28;20234;-47
2021/03/02 04:44:47;;;;;;;31.23;17.75;;;3.60;99.90;;;;;;5073232;28;20195;-47
2021/03/02 04:47:14;;;;;;;31.00;18.50;;;3.10;99.90;;;;;;5073311;28;20672;-47
2021/03/02 04:49:40;;;;;;;32.55;18.80;;;3.10;99.90;;;;;;5073189;28;20261;-47
2021/03/02 04:52:06;;;;;;;35.78;19.00;;;3.00;99.90;;;;;;5073459;28;20199;-47
2021/03/02 04:54:32;;;;;;;33.30;19.23;;;3.40;99.90;;;;;;5073082;28;20195;-47
2021/03/02 04:56:59;;;;;;;33.60;20.05;;;3.00;99.90;;;;;;5073734;28;20270;-47
2021/03/02 04:59:25;;;;;;;33.17;19.35;;;3.20;99.90;;;;;;5073313;28;20253;-46
2021/03/02 05:01:52;;;;;;;31.17;18.35;;;3.10;99.90;;;;;;5073308;28;20614;-48
2021/03/02 05:04:18;;;;;;;29.65;18.10;;;3.20;99.90;;;;;;5072833;28;20203;-48
2021/03/02 05:06:45;;;;;;;32.65;19.10;;;3.00;99.90;;;;;;5072979;28;20219;-47
2021/03/02 05:09:11;;;;;;;34.47;18.90;;;3.10;99.90;;;;;;5072549;28;20234;-47
2021/03/02 05:11:37;;;;;;;34.17;20.23;;;3.00;99.90;;;;;;5073004;28;20274;-48
2021/03/02 05:14:03;;;;;;;33.53;19.35;;;3.20;99.90;;;;;;5072370;28;20197;-47
2021/03/02 05:16:31;;;;;;;34.45;20.40;;;3.00;99.90;;;;;;5072783;28;20248;-47
2021/03/02 05:18:58;;;;;;;31.83;18.58;;;3.10;99.90;;;;;;5072812;28;20631;-48
2021/03/02 05:21:24;;;;;;;28.38;18.98;;;2.90;99.90;;;;;;5072614;28;20333;-46
2021/03/02 05:23:50;;;;;;;42.88;19.52;;;3.10;99.90;;;;;;5072231;28;20228;-49
2021/03/02 05:26:17;;;;;;;31.08;18.90;;;3.00;99.90;;;;;;5073589;28;20290;-48
2021/03/02 05:28:43;;;;;;;32.60;19.75;;;3.10;99.90;;;;;;5073579;28;20298;-47
2021/03/02 05:31:09;;;;;;;37.88;20.02;;;3.00;99.90;;;;;;5073973;28;20286;-47
2021/03/02 05:33:35;;;;;;;37.53;20.30;;;3.00;99.90;;;;;;5073404;28;20729;-47
2021/03/02 05:36:02;;;;;;;32.28;19.25;;;2.80;99.90;;;;;;5073496;28;20265;-47
2021/03/02 05:38:28;;;;;;;33.15;18.42;;;2.90;99.90;;;;;;5073135;28;20311;-47
2021/03/02 05:40:55;;;;;;;35.90;19.73;;;2.90;99.90;;;;;;5073140;28;20202;-48
2021/03/02 05:43:21;;;;;;;36.55;22.02;;;2.90;99.90;;;;;;5073329;28;20211;-46
2021/03/02 05:45:48;;;;;;;33.88;19.35;;;3.00;99.90;;;;;;5073772;28;20199;-47
2021/03/02 05:48:15;;;;;;;32.17;18.55;;;3.00;99.90;;;;;;5073656;28;20217;-48
2021/03/02 05:50:41;;;;;;;30.10;17.42;;;2.90;99.90;;;;;;5073305;28;20574;-48
2021/03/02 05:53:09;;;;;;;27.27;18.08;;;3.10;99.90;;;;;;5072755;28;20664;-46
2021/03/02 05:55:36;;;;;;;29.95;18.92;;;3.00;99.90;;;;;;5073056;28;20207;-47
2021/03/02 05:58:04;;;;;;;28.20;16.90;;;3.20;99.90;;;;;;5073658;28;20274;-47
2021/03/02 06:00:30;;;;;;;30.98;17.48;;;3.00;99.90;;;;;;5073173;28;20278;-47
2021/03/02 06:02:57;;;;;;;34.40;16.83;;;3.20;99.90;;;;;;5054229;28;20293;-47
2021/03/02 06:05:23;;;;;;;26.83;17.52;;;3.10;99.90;;;;;;5072476;28;20218;-46
2021/03/02 06:07:49;;;;;;;29.02;17.40;;;2.80;99.90;;;;;;5072425;28;20649;-47
2021/03/02 06:10:17;;;;;;;25.58;17.10;;;3.00;99.90;;;;;;5072394;28;20219;-50
2021/03/02 06:12:50;;;;;;;31.50;18.20;;;3.00;99.90;;;;;;5071847;28;20207;-46
2021/03/02 06:15:18;;;;;;;29.90;17.33;;;3.00;99.90;;;;;;5071916;28;20197;-47
2021/03/02 06:17:44;;;;;;;24.45;15.45;;;2.80;99.90;;;;;;5071622;28;20200;-47
2021/03/02 06:20:20;;;;;;;26.30;16.70;;;2.70;99.90;;;;;;5074989;28;20751;-47
2021/03/02 06:22:46;;;;;;;28.92;18.35;;;2.70;99.90;;;;;;5077769;28;20191;-49
2021/03/02 06:25:27;;;;;;;25.45;16.65;;;3.20;99.90;;;;;;5078044;28;20203;-48
2021/03/02 06:27:54;;;;;;;25.48;16.52;;;2.70;99.90;;;;;;5078090;28;20207;-50
2021/03/02 06:30:21;;;;;;;29.65;17.17;;;3.00;99.90;;;;;;5077805;28;20215;-50
2021/03/02 06:32:51;;;;;;;25.50;16.88;;;2.30;99.90;;;;;;5077685;28;20214;-50
2021/03/02 06:35:32;;;;;;;27.35;16.83;;;3.10;99.90;;;;;;5078156;28;20198;-48
2021/03/02 06:37:58;;;;;;;29.55;17.02;;;2.40;99.90;;;;;;5077905;28;20627;-48
2021/03/02 06:40:42;;;;;;;26.40;16.30;;;3.10;99.90;;;;;;5077699;28;20755;-50
2021/03/02 06:43:28;;;;;;;29.38;17.35;;;3.30;99.90;;;;;;5077642;28;20277;-49
2021/03/02 06:45:54;;;;;;;31.05;17.77;;;3.00;99.90;;;;;;5078123;28;20194;-49
2021/03/02 06:48:20;;;;;;;26.05;17.25;;;3.30;99.90;;;;;;5059453;28;20251;-48
2021/03/02 06:50:47;;;;;;;26.50;16.85;;;3.30;99.90;;;;;;5077723;28;20223;-49
2021/03/02 06:53:15;;;;;;;30.75;16.17;;;3.80;99.90;;;;;;5077305;28;20203;-49
2021/03/02 06:55:42;;;;;;;22.33;14.73;;;3.30;99.90;;;;;;5077842;28;20191;-48
2021/03/02 06:58:17;;;;;;;35.08;17.35;;;3.30;99.90;;;;;;5077149;28;20198;-49
2021/03/02 07:00:49;;;;;;;30.95;16.50;;;3.30;99.90;;;;;;5078093;28;20196;-48
2021/03/02 07:03:27;;;;;;;33.90;17.65;;;3.50;99.90;;;;;;5077491;28;20260;-49
2021/03/02 07:05:55;;;;;;;30.30;16.20;;;3.70;99.90;;;;;;5077500;28;20203;-51
2021/03/02 07:08:22;;;;;;;41.50;16.98;;;3.60;99.90;;;;;;5077866;28;20642;-48
2021/03/02 07:10:51;;;;;;;34.22;19.67;;;3.60;99.90;;;;;;5078177;28;20568;-48
2021/03/02 07:13:19;;;;;;;32.08;18.25;;;3.60;99.90;;;;;;5077999;28;20238;-50
2021/03/02 07:15:46;;;;;;;25.25;16.02;;;3.70;99.90;;;;;;5078902;28;20199;-47
2021/03/02 07:18:16;;;;;;;29.40;16.35;;;3.60;99.90;;;;;;5078205;28;20223;-49
2021/03/02 07:20:48;;;;;;;31.40;17.90;;;4.00;99.90;;;;;;5078406;28;20202;-48
2021/03/02 07:23:19;;;;;;;45.15;20.25;;;3.60;99.90;;;;;;5077336;28;20626;-48
2021/03/02 07:25:47;;;;;;;35.90;18.38;;;3.30;99.90;;;;;;5077332;28;20215;-49
2021/03/02 07:28:16;;;;;;;36.25;20.02;;;3.80;99.90;;;;;;5077089;28;20260;-48
2021/03/02 07:30:45;;;;;;;31.63;17.65;;;3.70;99.90;;;;;;5076826;28;20684;-50
2021/03/02 07:33:12;;;;;;;32.80;17.52;;;4.00;99.90;;;;;;5073831;28;20336;-50
2021/03/02 07:35:38;;;;;;;35.20;18.45;;;3.80;99.90;;;;;;5074180;28;20211;-48
2021/03/02 07:38:14;;;;;;;26.25;17.10;;;4.20;99.90;;;;;;5074063;28;20209;-47
2021/03/02 07:40:46;;;;;;;29.45;16.52;;;4.30;99.90;;;;;;5074009;28;20240;-49
2021/03/02 07:43:33;;;;;;;32.40;17.15;;;4.20;99.90;;;;;;5072978;28;20195;-50
2021/03/02 07:46:01;;;;;;;34.28;18.08;;;4.10;99.90;;;;;;5073683;28;20195;-49
2021/03/02 07:48:33;;;;;;;28.80;16.80;;;4.20;99.90;;;;;;5073432;28;20239;-50
2021/03/02 07:51:16;;;;;;;36.83;17.65;;;3.80;99.90;;;;;;5073832;28;20191;-49
2021/03/02 07:53:45;;;;;;;34.08;17.55;;;4.10;99.90;;;;;;5073394;28;20191;-51
2021/03/02 07:56:21;;;;;;;39.83;19.95;;;4.20;99.90;;;;;;5074022;28;20195;-49
2021/03/02 07:59:19;;;;;;;30.85;18.52;;;4.40;99.90;;;;;;5073707;28;20207;-49
2021/03/02 08:02:04;;;;;;;30.50;19.10;;;4.30;99.90;;;;;;5074260;28;20283;-50
2021/03/02 08:04:31;;;;;;;30.10;16.70;;;4.40;99.90;;;;;;5073309;28;20199;-50
2021/03/02 08:07:18;;;;;;;30.55;17.40;;;4.60;99.90;;;;;;5073051;28;20196;-50
2021/03/02 08:09:45;;;;;;;30.88;18.10;;;4.60;99.90;;;;;;5055009;28;20234;-51
2021/03/02 08:12:26;;;;;;;48.42;20.55;;;4.80;99.90;;;;;;5073139;28;20575;-50
2021/03/02 08:14:53;;;;;;;29.88;18.20;;;5.00;99.90;;;;;;5073190;28;20198;-51
2021/03/02 08:17:22;;;;;;;30.13;16.52;;;4.80;99.90;;;;;;5073083;28;20223;-49
2021/03/02 08:19:49;;;;;;;30.50;18.05;;;5.00;99.90;;;;;;5072947;28;20246;-49
2021/03/02 08:22:49;;;;;;;27.80;18.85;;;5.10;99.90;;;;;;5072742;28;20203;-49
2021/03/02 08:25:29;;;;;;;28.10;18.15;;;5.30;99.90;;;;;;5069733;28;20259;-51
2021/03/02 08:28:01;;;;;;;33.92;20.00;;;5.20;99.90;;;;;;5073456;28;20222;-49
2021/03/02 08:30:30;;;;;;;32.53;18.65;;;4.50;99.90;;;;;;5072575;28;20216;-51
2021/03/02 08:32:59;;;;;;;35.95;19.60;;;5.20;99.90;;;;;;5072794;28;20249;-49
2021/03/02 08:35:29;;;;;;;37.53;21.08;;;5.20;99.90;;;;;;5073375;28;20214;-49
2021/03/02 08:37:56;;;;;;;27.88;18.17;;;5.40;99.90;;;;;;5073150;28;20257;-51
2021/03/02 08:40:25;;;;;;;32.42;19.63;;;5.30;99.90;;;;;;5054644;28;20227;-50
2021/03/02 08:43:00;;;;;;;40.08;22.13;;;5.20;99.90;;;;;;5072097;28;20243;-50
2021/03/02 08:45:28;;;;;;;45.97;24.60;;;5.50;99.90;;;;;;5072515;28;20218;-50
2021/03/02 08:48:27;;;;;;;44.70;25.20;;;5.30;99.90;;;;;;5054268;28;20211;-50
2021/03/02 08:50:55;;;;;;;52.65;23.50;;;5.60;99.90;;;;;;5072614;28;20223;-49
2021/03/02 08:53:37;;;;;;;45.83;24.43;;;5.80;99.90;;;;;;5072962;28;20257;-49
2021/03/02 08:56:06;;;;;;;47.03;26.08;;;5.80;99.90;;;;;;5072643;28;20503;-49
2021/03/02 08:58:35;;;;;;;53.83;27.45;;;5.70;99.90;;;;;;5072560;28;20286;-50
2021/03/02 09:01:06;;;;;;;45.23;25.60;;;5.70;99.90;;;;;;5072664;28;20200;-49
2021/03/02 09:03:33;;;;;;;45.10;26.65;;;5.40;99.90;;;;;;5072269;28;20517;-50
2021/03/02 09:06:19;;;;;;;53.75;26.65;;;5.80;99.90;;;;;;5072294;28;20191;-51
2021/03/02 09:08:50;;;;;;;47.10;27.02;;;5.70;99.90;;;;;;5072033;28;20556;-49
2021/03/02 09:11:19;;;;;;;48.13;26.45;;;5.40;99.90;;;;;;5072185;28;20191;-50
2021/03/02 09:13:46;;;;;;;54.90;27.15;;;5.60;99.90;;;;;;5071725;28;20275;-50
2021/03/02 09:16:31;;;;;;;51.92;26.77;;;5.50;99.90;;;;;;5072425;28;20204;-51
2021/03/02 09:19:03;;;;;;;52.27;25.67;;;6.20;99.90;;;;;;5071761;28;20602;-49
2021/03/02 09:21:30;;;;;;;39.20;22.75;;;5.50;99.90;;;;;;5071976;28;20438;-50
2021/03/02 09:23:58;;;;;;;57.57;26.77;;;5.80;99.90;;;;;;5072113;28;20202;-50
2021/03/02 09:26:30;;;;;;;49.00;26.13;;;5.60;99.90;;;;;;5071916;28;20438;-50
2021/03/02 09:28:58;;;;;;;49.28;25.05;;;6.10;99.90;;;;;;5071684;28;20218;-50
2021/03/02 09:31:27;;;;;;;49.10;24.57;;;5.90;99.90;;;;;;5071865;28;20194;-50
2021/03/02 09:33:55;;;;;;;45.40;26.13;;;6.00;99.90;;;;;;5071795;28;20434;-50
2021/03/02 09:36:25;;;;;;;48.63;26.40;;;5.90;99.90;;;;;;5071875;28;20452;-50
2021/03/02 09:38:53;;;;;;;48.07;25.00;;;6.00;99.90;;;;;;5053520;28;20478;-50
2021/03/02 09:41:34;;;;;;;57.20;28.20;;;6.10;99.90;;;;;;5071548;28;20958;-49
2021/03/02 09:44:25;;;;;;;49.37;27.30;;;6.10;99.90;;;;;;5053056;28;20453;-50
2021/03/02 09:46:54;;;;;;;56.50;26.70;;;5.90;99.90;;;;;;5053471;28;20453;-51
2021/03/02 09:49:42;;;;;;;45.23;25.70;;;6.30;99.90;;;;;;5071459;28;20513;-49
2021/03/02 09:52:24;;;;;;;51.50;28.23;;;6.50;99.90;;;;;;5072103;28;20850;-50
2021/03/02 09:55:34;;;;;;;49.20;25.23;;;6.10;99.90;;;;;;5070543;28;20915;-50
2021/03/02 09:58:11;;;;;;;41.60;24.70;;;6.30;99.90;;;;;;5053519;28;20425;-50
2021/03/02 10:00:41;;;;;;;45.80;27.30;;;5.90;99.90;;;;;;5071726;28;20503;-51
2021/03/02 10:03:13;;;;;;;39.60;25.23;;;6.70;99.90;;;;;;5071277;28;20437;-49
2021/03/02 10:05:45;;;;;;;45.47;25.87;;;6.80;99.90;;;;;;5071183;28;20431;-50
2021/03/02 10:08:33;;;;;;;43.90;25.80;;;6.40;99.90;;;;;;5071223;28;20549;-50
2021/03/02 10:11:03;;;;;;;40.33;25.50;;;6.40;99.90;;;;;;5072070;28;20517;-50
2021/03/02 10:13:32;;;;;;;46.97;26.40;;;6.60;99.90;;;;;;5070169;28;20430;-50
2021/03/02 10:16:16;;;;;;;48.20;25.33;;;6.30;99.90;;;;;;5071167;28;20553;-49
2021/03/02 10:18:54;;;;;;;37.03;24.57;;;6.60;99.90;;;;;;5071144;28;20453;-50
2021/03/02 10:21:22;;;;;;;47.80;25.03;;;6.60;99.90;;;;;;5071844;28;20440;-50
2021/03/02 10:23:50;;;;;;;50.90;27.13;;;6.90;99.90;;;;;;5070611;28;20430;-49
2021/03/02 10:26:22;;;;;;;46.33;26.93;;;6.80;99.90;;;;;;5070880;28;20891;-49
2021/03/02 10:28:49;;;;;;;45.73;25.27;;;7.00;99.90;;;;;;5071084;28;20938;-50
2021/03/02 10:31:17;;;;;;;44.70;26.03;;;6.50;99.90;;;;;;5071175;28;20434;-50
2021/03/02 10:33:44;;;;;;;51.90;27.07;;;7.00;99.90;;;;;;5070498;28;20456;-51
2021/03/02 10:36:24;;;;;;;43.67;25.63;;;7.10;99.90;;;;;;5053234;28;20554;-49
2021/03/02 10:38:51;;;;;;;45.23;23.63;;;7.00;99.90;;;;;;5092394;22;20781;-45
2021/03/02 10:41:19;;;;;;;41.60;25.87;;;7.20;99.90;;;;;;5070517;28;20432;-45
2021/03/02 10:43:48;;;;;;;44.07;25.63;;;7.30;99.90;;;;;;5069819;28;20427;-44
2021/03/02 10:46:15;;;;;;;44.00;23.93;;;7.20;99.90;;;;;;5070066;28;20441;-45
2021/03/02 10:48:42;;;;;;;52.57;27.93;;;7.40;99.90;;;;;;5070081;28;20501;-44
2021/03/02 10:51:09;;;;;;;46.10;24.43;;;7.50;99.90;;;;;;5070513;28;20427;-44
2021/03/02 10:53:36;;;;;;;40.43;25.70;;;7.70;99.90;;;;;;5070401;28;20447;-44
2021/03/02 10:56:03;;;;;;;38.40;26.10;;;7.50;99.90;;;;;;5070851;28;20435;-45
2021/03/02 10:58:29;;;;;;;51.70;26.30;;;7.60;99.90;;;;;;5070069;28;20511;-45
2021/03/02 11:00:56;;;;;;;46.33;28.37;;;7.30;99.90;;;;;;5070512;28;20441;-44
2021/03/02 11:03:23;;;;;;;47.03;27.10;;;7.60;99.90;;;;;;5070222;28;20957;-43
2021/03/02 11:05:51;;;;;;;42.13;26.93;;;7.60;99.90;;;;;;5071064;28;20959;-44
2021/03/02 11:08:18;;;;;;;46.10;25.40;;;7.60;99.90;;;;;;5074215;28;20435;-46
2021/03/02 11:10:45;;;;;;;44.00;24.83;;;7.60;99.90;;;;;;5074237;28;20443;-44
2021/03/02 11:13:13;;;;;;;48.20;28.50;;;7.80;99.90;;;;;;5072600;28;20463;-45
2021/03/02 11:15:40;;;;;;;48.60;25.63;;;8.00;99.90;;;;;;5074087;28;21018;-46
2021/03/02 11:18:07;;;;;;;45.43;23.87;;;8.00;99.90;;;;;;5074109;28;20475;-44
2021/03/02 11:20:34;;;;;;;49.83;26.67;;;8.00;99.90;;;;;;5074355;28;20459;-43
2021/03/02 11:23:01;;;;;;;46.47;25.97;;;8.10;99.90;;;;;;5074003;28;20427;-44
2021/03/02 11:25:28;;;;;;;47.63;25.50;;;8.10;99.90;;;;;;5074177;28;20410;-44
2021/03/02 11:27:56;;;;;;;51.33;27.17;;;8.00;99.90;;;;;;5074001;28;20484;-45
2021/03/02 11:30:24;;;;;;;47.13;26.13;;;8.20;99.90;;;;;;5072205;28;20498;-45
2021/03/02 11:32:51;;;;;;;45.00;25.30;;;8.40;99.90;;;;;;5074653;28;20481;-44
2021/03/02 11:35:17;;;;;;;43.70;25.63;;;8.30;99.90;;;;;;5074298;28;20498;-44
2021/03/02 11:37:44;;;;;;;42.13;26.80;;;8.30;99.90;;;;;;5074360;28;20425;-46
2021/03/02 11:40:14;;;;;;;63.60;32.33;;;8.30;99.90;;;;;;5073121;28;20465;-46
2021/03/02 11:42:41;;;;;;;44.53;25.17;;;8.50;99.90;;;;;;5072967;28;20433;-47
2021/03/02 11:45:11;;;;;;;48.70;26.67;;;8.60;99.90;;;;;;5073069;28;20444;-46
2021/03/02 11:47:39;;;;;;;42.40;26.83;;;8.70;99.90;;;;;;5073587;28;20442;-45
2021/03/02 11:50:07;;;;;;;51.83;25.73;;;8.60;99.90;;;;;;5072739;28;20572;-44
2021/03/02 11:52:34;;;;;;;44.00;26.03;;;8.60;99.90;;;;;;5072567;28;20440;-45
2021/03/02 11:55:00;;;;;;;47.00;26.80;;;8.70;99.90;;;;;;5072733;28;20498;-45
2021/03/02 11:57:27;;;;;;;54.47;28.37;;;8.70;99.90;;;;;;5073094;28;20428;-47
2021/03/02 11:59:53;;;;;;;43.50;26.17;;;9.10;99.90;;;;;;5073159;28;20480;-46
2021/03/02 12:02:21;;;;;;;55.23;26.77;;;8.80;99.90;;;;;;5072613;28;20778;-46
2021/03/02 12:04:47;;;;;;;44.30;25.87;;;8.80;99.90;;;;;;5072436;28;20444;-44
2021/03/02 12:07:14;;;;;;;41.00;27.23;;;8.70;99.90;;;;;;5072733;28;20441;-44
2021/03/02 12:09:41;;;;;;;39.60;26.20;;;8.40;99.90;;;;;;5072836;28;20484;-46
2021/03/02 12:12:08;;;;;;;41.70;24.63;;;9.30;99.90;;;;;;5073097;28;20422;-45
2021/03/02 12:14:35;;;;;;;37.07;22.30;;;9.10;99.90;;;;;;5072412;28;20441;-46
2021/03/02 12:17:02;;;;;;;37.50;24.17;;;9.30;99.90;;;;;;5072252;28;20437;-46
2021/03/02 12:19:29;;;;;;;41.70;25.70;;;9.10;99.90;;;;;;5072447;28;20445;-44
2021/03/02 12:21:56;;;;;;;40.73;24.67;;;9.30;99.90;;;;;;5072524;28;20572;-45
2021/03/02 12:24:24;;;;;;;40.27;24.40;;;9.40;99.90;;;;;;5071937;28;20487;-47
2021/03/02 12:26:50;;;;;;;37.27;22.93;;;9.30;99.90;;;;;;5072522;28;20453;-45
2021/03/02 12:29:17;;;;;;;41.60;23.20;;;9.40;99.90;;;;;;5070986;28;20821;-45
2021/03/02 12:31:44;;;;;;;32.87;21.30;;;9.30;99.90;;;;;;5072036;28;20433;-46
2021/03/02 12:34:11;;;;;;;46.50;24.50;;;9.30;99.90;;;;;;5071922;28;20445;-44
2021/03/02 12:36:39;;;;;;;63.30;24.87;;;9.50;99.90;;;;;;5072149;28;20822;-44
2021/03/02 12:39:06;;;;;;;38.20;23.60;;;9.70;99.90;;;;;;5072123;28;20489;-44
2021/03/02 12:41:32;;;;;;;34.87;22.90;;;9.50;99.90;;;;;;5072453;28;20524;-45
2021/03/02 12:43:59;;;;;;;39.03;23.47;;;9.50;99.90;;;;;;5071685;28;20770;-45
2021/03/02 12:46:25;;;;;;;33.90;22.57;;;9.60;99.90;;;;;;5071916;28;20888;-45